Time;durP1;ratioP1;P1;durP2;ratioP2;P2;SDS_P1;SDS_P2;PMS_P1;PMS_P2;Temp;Humidity;BMP_temperature;BMP_pressure;BME280_temperature;BME280_humidity;BME280_pressure;Samples;Min_cycle;Max_cycle;Signal;HPM_P1;HPM_P2
2023/10/22 00:00:00;;;;;;;3.53;1.50;;;;;;;;;;5051097;28;20537;-85
2023/10/22 00:02:27;;;;;;;1.20;1.20;;;;;;;;;;5050045;28;20236;-85
2023/10/22 00:04:54;;;;;;;1.90;1.60;;;;;;;;;;5050909;28;20206;-84
2023/10/22 00:07:21;;;;;;;1.57;1.40;;;;;;;;;;5051483;28;20234;-85
2023/10/22 00:09:48;;;;;;;5.03;1.80;;;;;;;;;;5051269;28;20237;-84
2023/10/22 00:12:16;;;;;;;2.67;1.70;;;;;;;;;;5050559;28;20786;-85
2023/10/22 00:14:43;;;;;;;4.20;1.70;;;;;;;;;;5051103;28;20688;-85
2023/10/22 00:17:11;;;;;;;1.90;1.37;;;;;;;;;;5051030;28;20835;-85
2023/10/22 00:19:38;;;;;;;5.50;1.97;;;;;;;;;;5051238;28;20735;-85
2023/10/22 00:22:05;;;;;;;1.80;1.57;;;;;;;;;;5052271;28;20225;-85
2023/10/22 00:24:33;;;;;;;2.20;1.33;;;;;;;;;;5055222;28;20210;-85
2023/10/22 00:27:00;;;;;;;1.47;1.37;;;;;;;;;;5054451;28;20221;-85
2023/10/22 00:29:27;;;;;;;1.73;1.30;;;;;;;;;;5050817;28;20218;-85
2023/10/22 00:31:54;;;;;;;1.73;1.50;;;;;;;;;;5054463;28;20578;-86
2023/10/22 00:34:22;;;;;;;1.40;1.30;;;;;;;;;;5055570;28;20205;-85
2023/10/22 00:36:50;;;;;;;2.07;1.40;;;;;;;;;;5054435;28;20241;-85
2023/10/22 00:39:17;;;;;;;2.50;1.47;;;;;;;;;;5055056;28;20241;-85
2023/10/22 00:41:44;;;;;;;1.60;1.20;;;;;;;;;;5054336;28;20253;-85
2023/10/22 00:44:11;;;;;;;3.17;1.70;;;;;;;;;;5055027;28;20210;-85
2023/10/22 00:46:38;;;;;;;1.63;1.53;;;;;;;;;;5054404;28;20229;-85
2023/10/22 00:49:05;;;;;;;3.23;1.27;;;;;;;;;;5054674;28;20233;-84
2023/10/22 00:51:33;;;;;;;2.77;1.40;;;;;;;;;;5054216;28;20236;-85
2023/10/22 00:54:00;;;;;;;1.83;1.73;;;;;;;;;;5054475;28;20583;-85
2023/10/22 00:56:28;;;;;;;1.60;1.40;;;;;;;;;;5054368;28;20229;-85
2023/10/22 00:58:56;;;;;;;6.93;1.50;;;;;;;;;;5054383;28;20224;-85
2023/10/22 01:01:23;;;;;;;1.27;1.27;;;;;;;;;;5051785;28;20245;-85
2023/10/22 01:03:50;;;;;;;3.70;1.20;;;;;;;;;;5043426;28;20665;-85
2023/10/22 01:06:17;;;;;;;1.47;1.43;;;;;;;;;;5048575;28;20233;-85
2023/10/22 01:08:46;;;;;;;2.17;1.47;;;;;;;;;;5050037;28;20719;-85
2023/10/22 01:11:14;;;;;;;1.30;1.20;;;;;;;;;;5044524;28;20764;-85
2023/10/22 01:13:41;;;;;;;2.60;1.60;;;;;;;;;;5054618;28;20238;-85
2023/10/22 01:16:09;;;;;;;1.20;1.20;;;;;;;;;;5053665;28;20696;-84
2023/10/22 01:18:36;;;;;;;3.07;1.20;;;;;;;;;;5054432;28;20254;-85
2023/10/22 01:21:04;;;;;;;5.43;1.27;;;;;;;;;;5053419;28;20719;-85
2023/10/22 01:23:36;;;;;;;1.60;1.37;;;;;;;;;;5054287;28;20198;-85
2023/10/22 01:26:04;;;;;;;2.07;1.50;;;;;;;;;;5053963;28;20242;-85
2023/10/22 01:28:31;;;;;;;1.40;1.30;;;;;;;;;;5054006;28;20580;-86
2023/10/22 01:30:58;;;;;;;1.80;1.37;;;;;;;;;;5053433;28;20749;-85
2023/10/22 01:33:26;;;;;;;2.57;1.43;;;;;;;;;;5053121;28;20208;-86
2023/10/22 01:35:53;;;;;;;1.80;1.50;;;;;;;;;;5053323;28;20723;-85
2023/10/22 01:38:20;;;;;;;1.30;1.30;;;;;;;;;;5053578;28;20252;-85
2023/10/22 01:40:48;;;;;;;1.53;1.30;;;;;;;;;;5053611;28;20232;-85
2023/10/22 01:43:15;;;;;;;2.17;1.30;;;;;;;;;;5053478;28;20198;-85
2023/10/22 01:45:42;;;;;;;1.70;1.30;;;;;;;;;;5053596;28;20234;-85
2023/10/22 01:48:09;;;;;;;2.07;1.53;;;;;;;;;;5053580;28;20209;-85
2023/10/22 01:50:36;;;;;;;4.80;1.67;;;;;;;;;;5053189;28;20233;-85
2023/10/22 01:53:04;;;;;;;2.63;1.47;;;;;;;;;;5053554;28;20695;-85
2023/10/22 01:55:31;;;;;;;3.43;1.80;;;;;;;;;;5053093;28;20238;-85
2023/10/22 01:57:59;;;;;;;1.97;1.33;;;;;;;;;;5053582;28;20233;-85
2023/10/22 02:00:27;;;;;;;2.37;1.70;;;;;;;;;;5052995;28;20606;-85
2023/10/22 02:02:54;;;;;;;1.67;1.57;;;;;;;;;;5053446;28;20206;-85
2023/10/22 02:05:21;;;;;;;1.40;1.30;;;;;;;;;;5032988;28;20593;-85
2023/10/22 02:07:48;;;;;;;1.50;1.40;;;;;;;;;;5033624;28;20673;-85
2023/10/22 02:10:15;;;;;;;3.03;1.50;;;;;;;;;;5050364;28;20712;-85
2023/10/22 02:12:42;;;;;;;2.53;1.27;;;;;;;;;;5052929;28;20658;-85
2023/10/22 02:15:11;;;;;;;2.20;1.50;;;;;;;;;;5051924;28;20206;-84
2023/10/22 02:17:38;;;;;;;1.50;1.37;;;;;;;;;;5053169;28;20316;-85
2023/10/22 02:20:08;;;;;;;2.60;1.40;;;;;;;;;;5052638;28;20230;-85
2023/10/22 02:22:36;;;;;;;1.77;1.23;;;;;;;;;;5033346;28;20227;-85
2023/10/22 02:25:03;;;;;;;4.33;1.43;;;;;;;;;;5032690;28;20211;-85
2023/10/22 02:27:30;;;;;;;2.47;1.40;;;;;;;;;;5033511;28;20203;-86
2023/10/22 02:29:57;;;;;;;1.53;1.30;;;;;;;;;;5042537;28;20226;-85
2023/10/22 02:32:26;;;;;;;3.63;1.60;;;;;;;;;;5052625;28;20730;-86
2023/10/22 02:34:53;;;;;;;3.13;1.77;;;;;;;;;;5052702;28;20703;-85
2023/10/22 02:37:20;;;;;;;1.70;1.50;;;;;;;;;;5052031;28;20730;-85
2023/10/22 02:39:47;;;;;;;3.77;1.83;;;;;;;;;;5052472;28;20918;-85
2023/10/22 02:42:14;;;;;;;2.23;1.80;;;;;;;;;;5051716;28;20287;-85
2023/10/22 02:44:41;;;;;;;2.83;1.63;;;;;;;;;;5052655;28;20210;-86
2023/10/22 02:47:08;;;;;;;1.47;1.30;;;;;;;;;;5052099;28;20241;-85
2023/10/22 02:49:37;;;;;;;4.37;1.60;;;;;;;;;;5052729;28;20217;-86
2023/10/22 02:52:05;;;;;;;1.73;1.40;;;;;;;;;;5051711;28;20225;-85
2023/10/22 02:54:32;;;;;;;1.80;1.43;;;;;;;;;;5052502;28;20672;-85
2023/10/22 02:56:59;;;;;;;3.77;1.60;;;;;;;;;;5051625;28;20751;-85
2023/10/22 02:59:26;;;;;;;1.20;1.10;;;;;;;;;;5052276;28;20229;-85
2023/10/22 03:01:54;;;;;;;2.00;1.50;;;;;;;;;;5051466;28;20261;-86
2023/10/22 03:04:21;;;;;;;2.57;1.40;;;;;;;;;;5052280;28;20206;-86
2023/10/22 03:06:49;;;;;;;1.43;1.20;;;;;;;;;;5051539;28;20324;-85
2023/10/22 03:09:17;;;;;;;2.17;1.73;;;;;;;;;;5051788;28;20218;-85
2023/10/22 03:11:44;;;;;;;2.53;1.60;;;;;;;;;;5051227;28;20621;-85
2023/10/22 03:14:11;;;;;;;5.33;1.40;;;;;;;;;;5051920;28;20788;-85
2023/10/22 03:16:38;;;;;;;1.53;1.43;;;;;;;;;;5051579;28;20233;-85
2023/10/22 03:19:05;;;;;;;3.67;1.73;;;;;;;;;;5051626;28;20312;-85
2023/10/22 03:21:35;;;;;;;2.40;1.40;;;;;;;;;;5051495;28;20237;-85
2023/10/22 03:24:07;;;;;;;1.50;1.37;;;;;;;;;;5051803;28;20212;-86
2023/10/22 03:26:34;;;;;;;1.73;1.43;;;;;;;;;;5051413;28;20300;-85
2023/10/22 03:29:01;;;;;;;2.43;1.70;;;;;;;;;;5051602;28;20222;-85
2023/10/22 03:31:28;;;;;;;1.33;1.23;;;;;;;;;;5050922;28;20731;-83
2023/10/22 03:33:55;;;;;;;3.03;1.20;;;;;;;;;;5051782;28;20214;-83
2023/10/22 03:36:22;;;;;;;2.43;1.47;;;;;;;;;;5051436;28;20237;-83
2023/10/22 03:38:49;;;;;;;4.23;2.00;;;;;;;;;;5051818;28;20226;-83
2023/10/22 03:41:17;;;;;;;2.63;1.50;;;;;;;;;;5051042;28;20230;-83
2023/10/22 03:43:44;;;;;;;6.10;1.77;;;;;;;;;;5050970;28;20205;-83
2023/10/22 03:46:12;;;;;;;3.90;1.43;;;;;;;;;;5050945;28;20703;-83
2023/10/22 03:48:39;;;;;;;3.87;1.50;;;;;;;;;;5051167;28;20599;-83
2023/10/22 03:51:06;;;;;;;1.57;1.17;;;;;;;;;;5050712;28;20704;-83
2023/10/22 03:53:34;;;;;;;2.87;1.77;;;;;;;;;;5051381;28;20206;-83
2023/10/22 03:56:01;;;;;;;3.10;1.60;;;;;;;;;;5050306;28;20233;-83
2023/10/22 03:58:29;;;;;;;1.63;1.50;;;;;;;;;;5051375;28;20288;-83
2023/10/22 04:00:56;;;;;;;1.60;1.50;;;;;;;;;;5050416;28;20237;-83
2023/10/22 04:03:23;;;;;;;1.03;1.03;;;;;;;;;;5051096;28;20206;-83
2023/10/22 04:05:55;;;;;;;3.53;1.50;;;;;;;;;;5050610;28;20602;-85
2023/10/22 04:08:22;;;;;;;2.33;1.17;;;;;;;;;;5051104;28;20289;-83
2023/10/22 04:10:49;;;;;;;2.60;1.40;;;;;;;;;;5050478;28;20899;-84
2023/10/22 04:13:16;;;;;;;3.50;1.80;;;;;;;;;;5051357;28;20545;-84
2023/10/22 04:15:45;;;;;;;3.00;1.83;;;;;;;;;;5050696;28;20230;-84
2023/10/22 04:18:13;;;;;;;2.60;1.53;;;;;;;;;;5050953;28;20228;-83
2023/10/22 04:20:40;;;;;;;3.50;1.80;;;;;;;;;;5050970;28;20649;-84
2023/10/22 04:23:08;;;;;;;2.30;1.50;;;;;;;;;;5051345;28;20222;-84
2023/10/22 04:25:38;;;;;;;3.33;1.93;;;;;;;;;;5050470;28;20237;-84
2023/10/22 04:28:06;;;;;;;1.53;1.40;;;;;;;;;;5051047;28;20194;-84
2023/10/22 04:30:33;;;;;;;2.00;1.43;;;;;;;;;;5050754;28;20233;-83
2023/10/22 04:33:01;;;;;;;1.37;1.27;;;;;;;;;;5050948;28;20209;-83
2023/10/22 04:35:29;;;;;;;3.87;1.50;;;;;;;;;;5050799;28;20234;-84
2023/10/22 04:37:56;;;;;;;2.57;1.40;;;;;;;;;;5050527;28;20237;-85
2023/10/22 04:40:26;;;;;;;3.47;1.73;;;;;;;;;;5050209;28;20700;-84
2023/10/22 04:42:56;;;;;;;2.67;1.60;;;;;;;;;;5050420;28;20204;-84
2023/10/22 04:45:23;;;;;;;3.13;1.50;;;;;;;;;;5050750;28;20258;-84
2023/10/22 04:47:50;;;;;;;1.57;1.47;;;;;;;;;;5051588;28;20201;-84
2023/10/22 04:50:18;;;;;;;1.37;1.37;;;;;;;;;;5050424;28;20218;-84
2023/10/22 04:52:45;;;;;;;2.03;1.50;;;;;;;;;;5051185;28;20213;-85
2023/10/22 04:55:12;;;;;;;1.47;1.33;;;;;;;;;;5050295;28;20222;-84
2023/10/22 04:57:39;;;;;;;1.67;1.20;;;;;;;;;;5050636;28;20214;-84
2023/10/22 05:00:08;;;;;;;4.03;1.53;;;;;;;;;;5050093;28;20237;-85
2023/10/22 05:02:35;;;;;;;4.87;1.83;;;;;;;;;;5050658;28;20256;-85
2023/10/22 05:05:02;;;;;;;2.87;1.57;;;;;;;;;;5050493;28;20210;-84
2023/10/22 05:07:30;;;;;;;5.83;1.50;;;;;;;;;;5050721;28;20626;-84
2023/10/22 05:09:57;;;;;;;2.73;2.07;;;;;;;;;;5053763;28;20228;-84
2023/10/22 05:12:24;;;;;;;4.47;2.00;;;;;;;;;;5053405;28;20222;-84
2023/10/22 05:14:52;;;;;;;2.27;1.40;;;;;;;;;;5054733;28;20198;-84
2023/10/22 05:17:19;;;;;;;3.67;1.50;;;;;;;;;;5053654;28;20233;-84
2023/10/22 05:19:48;;;;;;;3.43;2.03;;;;;;;;;;5054478;28;20238;-85
2023/10/22 05:22:17;;;;;;;3.83;1.50;;;;;;;;;;5053558;28;20319;-84
2023/10/22 05:24:47;;;;;;;3.73;1.57;;;;;;;;;;5054351;28;20210;-85
2023/10/22 05:27:15;;;;;;;4.13;1.37;;;;;;;;;;5053826;28;20256;-85
2023/10/22 05:29:43;;;;;;;6.83;2.37;;;;;;;;;;5054151;28;20288;-84
2023/10/22 05:32:10;;;;;;;2.00;1.80;;;;;;;;;;5053725;28;20237;-84
2023/10/22 05:34:37;;;;;;;4.47;1.80;;;;;;;;;;5053879;28;20198;-84
2023/10/22 05:37:05;;;;;;;4.97;1.80;;;;;;;;;;5053450;28;20268;-84
2023/10/22 05:39:32;;;;;;;2.47;1.70;;;;;;;;;;5053798;28;20226;-84
2023/10/22 05:42:01;;;;;;;5.23;1.70;;;;;;;;;;5053179;28;20700;-84
2023/10/22 05:44:28;;;;;;;2.67;1.67;;;;;;;;;;5054128;28;20198;-84
2023/10/22 05:46:55;;;;;;;4.60;1.87;;;;;;;;;;5053254;28;20237;-84
2023/10/22 05:49:22;;;;;;;6.47;1.97;;;;;;;;;;5053560;28;20215;-87
2023/10/22 05:51:50;;;;;;;2.83;1.70;;;;;;;;;;5052998;28;20237;-86
2023/10/22 05:54:17;;;;;;;7.37;1.87;;;;;;;;;;5053763;28;20206;-85
2023/10/22 05:56:45;;;;;;;4.97;1.83;;;;;;;;;;5053025;28;20234;-86
2023/10/22 05:59:13;;;;;;;3.87;1.97;;;;;;;;;;5053289;28;20252;-88
2023/10/22 06:01:41;;;;;;;3.67;2.30;;;;;;;;;;5049072;28;20225;-87
2023/10/22 06:04:08;;;;;;;2.27;1.83;;;;;;;;;;5052729;28;20202;-87
2023/10/22 06:06:35;;;;;;;5.83;1.80;;;;;;;;;;5050436;28;20260;-86
2023/10/22 06:09:03;;;;;;;5.17;1.70;;;;;;;;;;5051106;28;20218;-86
2023/10/22 06:11:30;;;;;;;4.87;1.57;;;;;;;;;;5052663;28;20245;-87
2023/10/22 06:13:57;;;;;;;3.77;1.60;;;;;;;;;;5048633;28;20740;-86
2023/10/22 06:16:26;;;;;;;4.90;2.43;;;;;;;;;;5052683;28;20226;-86
2023/10/22 06:18:53;;;;;;;7.73;3.00;;;;;;;;;;5052685;28;20708;-89
2023/10/22 06:21:20;;;;;;;1.70;1.43;;;;;;;;;;5052522;28;20249;-88
2023/10/22 06:23:47;;;;;;;4.93;1.47;;;;;;;;;;5053212;28;20306;-88
2023/10/22 06:26:14;;;;;;;5.67;2.00;;;;;;;;;;5052506;28;20727;-89
2023/10/22 06:28:41;;;;;;;1.60;1.50;;;;;;;;;;5053150;28;20218;-85
2023/10/22 06:31:09;;;;;;;3.70;1.60;;;;;;;;;;5051962;28;20237;-85
2023/10/22 06:33:38;;;;;;;6.47;1.87;;;;;;;;;;5037315;28;20205;-85
2023/10/22 06:36:14;;;;;;;3.70;1.97;;;;;;;;;;5052043;28;20246;-85
2023/10/22 06:38:42;;;;;;;1.93;1.47;;;;;;;;;;5052729;28;20229;-85
2023/10/22 06:41:13;;;;;;;6.50;1.87;;;;;;;;;;5051972;28;20233;-86
2023/10/22 06:43:40;;;;;;;6.87;2.10;;;;;;;;;;5052812;28;20213;-85
2023/10/22 06:46:07;;;;;;;5.90;1.70;;;;;;;;;;5052182;28;20723;-85
2023/10/22 06:48:34;;;;;;;5.87;2.40;;;;;;;;;;5052274;28;20229;-86
2023/10/22 06:51:04;;;;;;;3.30;1.70;;;;;;;;;;5052257;28;20271;-85
2023/10/22 06:53:31;;;;;;;4.73;1.80;;;;;;;;;;5032305;28;20278;-86
2023/10/22 06:55:58;;;;;;;4.33;1.87;;;;;;;;;;5032726;28;20226;-86
2023/10/22 06:58:25;;;;;;;5.67;1.93;;;;;;;;;;5052178;28;20693;-85
2023/10/22 07:00:54;;;;;;;1.90;1.67;;;;;;;;;;5051876;28;20731;-85
2023/10/22 07:03:21;;;;;;;2.10;1.83;;;;;;;;;;5052256;28;20229;-85
2023/10/22 07:05:48;;;;;;;2.97;1.60;;;;;;;;;;5052021;28;20230;-85
2023/10/22 07:08:18;;;;;;;3.33;1.77;;;;;;;;;;5051822;28;20215;-85
2023/10/22 07:10:45;;;;;;;3.07;1.30;;;;;;;;;;5051454;28;20225;-84
2023/10/22 07:13:12;;;;;;;6.53;2.03;;;;;;;;;;5051255;28;20210;-83
2023/10/22 07:15:39;;;;;;;3.60;1.40;;;;;;;;;;5051136;28;20716;-83
2023/10/22 07:18:06;;;;;;;4.83;1.90;;;;;;;;;;5052183;28;20198;-84
2023/10/22 07:20:34;;;;;;;7.00;1.77;;;;;;;;;;5051155;28;20234;-85
2023/10/22 07:23:01;;;;;;;1.97;1.50;;;;;;;;;;5051196;28;20229;-84
2023/10/22 07:25:29;;;;;;;3.60;1.80;;;;;;;;;;5050786;28;20230;-84
2023/10/22 07:27:56;;;;;;;5.03;1.70;;;;;;;;;;5051805;28;20213;-84
2023/10/22 07:30:24;;;;;;;6.67;2.10;;;;;;;;;;5051442;28;20240;-83
2023/10/22 07:32:52;;;;;;;7.47;2.47;;;;;;;;;;5051884;28;20213;-83
2023/10/22 07:35:19;;;;;;;3.80;1.60;;;;;;;;;;5051461;28;20279;-85
2023/10/22 07:37:46;;;;;;;2.23;1.10;;;;;;;;;;5047334;28;20226;-83
2023/10/22 07:40:14;;;;;;;6.70;1.47;;;;;;;;;;5040182;28;20760;-84
2023/10/22 07:42:42;;;;;;;4.10;2.07;;;;;;;;;;5051206;28;20202;-84
2023/10/22 07:45:10;;;;;;;8.90;1.87;;;;;;;;;;5050542;28;20275;-84
2023/10/22 07:47:37;;;;;;;6.03;2.10;;;;;;;;;;5051177;28;20301;-84
2023/10/22 07:50:04;;;;;;;5.13;1.80;;;;;;;;;;5050554;28;20217;-85
2023/10/22 07:52:32;;;;;;;3.43;1.80;;;;;;;;;;5050988;28;20225;-83
2023/10/22 07:54:59;;;;;;;5.47;1.13;;;;;;;;;;5050491;28;20202;-85
2023/10/22 07:57:26;;;;;;;5.40;1.70;;;;;;;;;;5051143;28;20240;-85
2023/10/22 07:59:55;;;;;;;3.90;1.50;;;;;;;;;;5050988;28;20245;-83
2023/10/22 08:02:22;;;;;;;2.73;1.37;;;;;;;;;;5051091;28;20229;-83
2023/10/22 08:04:49;;;;;;;4.03;1.70;;;;;;;;;;5051268;28;20212;-84
2023/10/22 08:07:18;;;;;;;2.00;1.67;;;;;;;;;;5052101;28;20230;-85
2023/10/22 08:09:45;;;;;;;5.60;1.77;;;;;;;;;;5067476;28;20228;-86
2023/10/22 08:12:12;;;;;;;3.27;1.70;;;;;;;;;;5059058;28;20229;-84
2023/10/22 08:14:39;;;;;;;3.67;1.73;;;;;;;;;;5054717;28;20213;-83
2023/10/22 08:17:08;;;;;;;2.13;1.50;;;;;;;;;;5054518;28;20253;-86
2023/10/22 08:19:35;;;;;;;3.40;1.60;;;;;;;;;;5054567;28;20700;-83
2023/10/22 08:22:02;;;;;;;7.40;2.00;;;;;;;;;;5052017;28;20727;-83
2023/10/22 08:24:29;;;;;;;7.40;1.57;;;;;;;;;;5052601;28;20686;-84
2023/10/22 08:26:56;;;;;;;2.33;1.70;;;;;;;;;;5052701;28;20765;-85
2023/10/22 08:29:24;;;;;;;4.23;1.80;;;;;;;;;;5054415;28;20214;-87
2023/10/22 08:31:51;;;;;;;4.83;1.97;;;;;;;;;;5065636;28;20210;-85
2023/10/22 08:34:21;;;;;;;7.73;2.17;;;;;;;;;;5071940;28;20204;-85
2023/10/22 08:36:48;;;;;;;5.40;1.97;;;;;;;;;;5071843;28;20234;-85
2023/10/22 08:39:15;;;;;;;4.27;1.60;;;;;;;;;;5069385;28;20225;-85
2023/10/22 08:41:49;;;;;;;4.30;1.40;;;;;;;;;;5068984;28;20237;-84
2023/10/22 08:44:16;;;;;;;1.70;1.60;;;;;;;;;;5072506;28;20218;-82
2023/10/22 08:46:43;;;;;;;4.37;1.87;;;;;;;;;;5070681;28;20244;-83
2023/10/22 08:49:12;;;;;;;2.63;1.63;;;;;;;;;;5071695;28;20253;-82
2023/10/22 08:51:40;;;;;;;3.30;1.73;;;;;;;;;;5070955;28;20708;-85
2023/10/22 08:54:10;;;;;;;7.23;1.93;;;;;;;;;;5057790;28;20213;-84
2023/10/22 08:56:37;;;;;;;1.53;1.40;;;;;;;;;;5055168;28;20261;-82
2023/10/22 08:59:05;;;;;;;2.50;1.90;;;;;;;;;;5057740;28;20226;-82
2023/10/22 09:01:33;;;;;;;4.30;2.23;;;;;;;;;;5053600;28;20655;-83
2023/10/22 09:04:00;;;;;;;7.47;1.63;;;;;;;;;;5053961;28;20202;-84
2023/10/22 09:06:27;;;;;;;6.27;1.70;;;;;;;;;;5049635;28;20241;-83
2023/10/22 09:08:56;;;;;;;4.77;1.77;;;;;;;;;;5054235;28;20213;-85
2023/10/22 09:11:24;;;;;;;4.40;1.37;;;;;;;;;;5053300;28;20226;-85
2023/10/22 09:13:51;;;;;;;3.83;1.60;;;;;;;;;;5054074;28;20202;-84
2023/10/22 09:16:31;;;;;;;2.97;1.40;;;;;;;;;;5053394;28;20233;-85
2023/10/22 09:19:01;;;;;;;3.40;1.90;;;;;;;;;;5051343;28;20257;-85
2023/10/22 09:21:41;;;;;;;3.30;1.60;;;;;;;;;;5052814;28;20712;-85
2023/10/22 09:24:10;;;;;;;11.17;2.23;;;;;;;;;;5049624;28;20275;-85
2023/10/22 09:26:44;;;;;;;1.40;1.30;;;;;;;;;;5053088;28;20244;-84
2023/10/22 09:29:11;;;;;;;5.27;1.87;;;;;;;;;;5053226;28;20222;-86
2023/10/22 09:31:39;;;;;;;1.80;1.33;;;;;;;;;;5052716;28;20228;-83
2023/10/22 09:34:24;;;;;;;4.37;1.43;;;;;;;;;;5055119;28;20614;-83
2023/10/22 09:36:54;;;;;;;1.40;1.30;;;;;;;;;;5052975;28;20221;-82
2023/10/22 09:39:35;;;;;;;5.80;1.77;;;;;;;;;;5051976;28;20241;-84
2023/10/22 09:42:03;;;;;;;3.23;1.60;;;;;;;;;;5050376;28;20226;-84
2023/10/22 09:44:31;;;;;;;5.93;1.80;;;;;;;;;;5053488;28;20213;-84
2023/10/22 09:47:00;;;;;;;4.10;1.83;;;;;;;;;;5048117;28;20230;-84
2023/10/22 09:49:29;;;;;;;2.83;1.50;;;;;;;;;;5053292;28;20214;-85
2023/10/22 09:51:59;;;;;;;6.83;1.77;;;;;;;;;;5052290;28;20256;-84
2023/10/22 09:54:31;;;;;;;4.57;1.50;;;;;;;;;;5052304;28;20198;-84
2023/10/22 09:57:07;;;;;;;8.67;1.80;;;;;;;;;;5052647;28;20225;-87
2023/10/22 09:59:35;;;;;;;2.37;1.40;;;;;;;;;;5052996;28;20230;-83
2023/10/22 10:02:04;;;;;;;5.00;1.47;;;;;;;;;;5052456;28;20229;-83
2023/10/22 10:04:32;;;;;;;2.43;1.23;;;;;;;;;;5053000;28;20206;-83
2023/10/22 10:07:02;;;;;;;2.17;1.40;;;;;;;;;;5048498;28;20233;-83
2023/10/22 10:09:30;;;;;;;2.97;1.90;;;;;;;;;;5052607;28;20226;-82
2023/10/22 10:11:57;;;;;;;3.70;1.50;;;;;;;;;;5051548;28;20222;-83
2023/10/22 10:14:43;;;;;;;3.70;1.53;;;;;;;;;;5051929;28;20206;-85
2023/10/22 10:17:12;;;;;;;6.40;1.53;;;;;;;;;;5049069;28;20552;-84
2023/10/22 10:19:39;;;;;;;3.50;1.70;;;;;;;;;;5052406;28;20684;-88
2023/10/22 10:22:06;;;;;;;4.00;1.57;;;;;;;;;;5051596;28;20234;-85
2023/10/22 10:24:34;;;;;;;10.50;2.07;;;;;;;;;;5052756;28;20202;-87
2023/10/22 10:27:20;;;;;;;3.20;1.27;;;;;;;;;;5052189;28;20229;-90
2023/10/22 10:30:08;;;;;;;3.57;1.30;;;;;;;;;;5052212;28;20304;-87
2023/10/22 10:32:42;;;;;;;3.37;1.67;;;;;;;;;;5044541;28;20225;-88
2023/10/22 10:35:10;;;;;;;6.03;1.50;;;;;;;;;;5051244;28;20274;-86
2023/10/22 10:37:37;;;;;;;2.87;1.17;;;;;;;;;;5050764;28;20581;-87
2023/10/22 10:40:05;;;;;;;5.10;1.67;;;;;;;;;;5051675;28;20584;-85
2023/10/22 10:42:50;;;;;;;4.07;1.43;;;;;;;;;;5052226;28;20200;-87
2023/10/22 10:45:18;;;;;;;5.33;1.70;;;;;;;;;;5051594;28;20191;-88
2023/10/22 10:47:47;;;;;;;5.70;1.70;;;;;;;;;;5052333;28;20692;-86
2023/10/22 10:50:19;;;;;;;2.10;1.60;;;;;;;;;;5052905;28;20242;-88
2023/10/22 10:52:58;;;;;;;3.33;1.37;;;;;;;;;;5047877;28;20217;-88
2023/10/22 10:55:34;;;;;;;6.93;1.87;;;;;;;;;;5046163;28;20752;-83
2023/10/22 10:58:02;;;;;;;5.90;2.03;;;;;;;;;;5050921;28;20224;-84
2023/10/22 11:00:30;;;;;;;7.57;2.07;;;;;;;;;;5051069;28;20233;-84
2023/10/22 11:03:01;;;;;;;3.47;1.50;;;;;;;;;;5051776;28;20300;-84
2023/10/22 11:05:32;;;;;;;5.70;1.67;;;;;;;;;;5051011;28;20218;-84
2023/10/22 11:07:59;;;;;;;3.20;1.50;;;;;;;;;;5051147;28;20202;-83
2023/10/22 11:10:28;;;;;;;2.90;1.40;;;;;;;;;;5051016;28;20275;-83
2023/10/22 11:13:02;;;;;;;5.83;1.53;;;;;;;;;;5051763;28;20241;-83
2023/10/22 11:15:32;;;;;;;6.15;1.55;;;;;;;;;;5051090;28;20229;-82
2023/10/22 11:18:03;;;;;;;3.40;1.73;;;;;;;;;;5051803;28;20202;-82
2023/10/22 11:20:30;;;;;;;8.25;2.10;;;;;;;;;;5050990;28;20238;-83
2023/10/22 11:22:57;;;;;;;4.03;1.33;;;;;;;;;;5051303;28;20202;-83
2023/10/22 11:25:26;;;;;;;4.78;1.77;;;;;;;;;;5058427;28;20241;-83
2023/10/22 11:27:53;;;;;;;3.03;1.57;;;;;;;;;;5051683;28;20256;-82
2023/10/22 11:30:36;;;;;;;4.90;1.92;;;;;;;;;;5050979;28;20226;-83
2023/10/22 11:33:05;;;;;;;4.43;2.43;;;;;;;;;;5051558;28;20574;-83
2023/10/22 11:35:33;;;;;;;5.60;2.40;;;;;;;;;;5051613;28;20253;-83
2023/10/22 11:38:00;;;;;;;5.80;1.83;;;;;;;;;;5051738;28;20217;-83
2023/10/22 11:40:28;;;;;;;7.63;2.67;;;;;;;;;;5049877;28;20238;-84
2023/10/22 11:42:55;;;;;;;10.13;2.00;;;;;;;;;;5051863;28;20233;-85
2023/10/22 11:45:22;;;;;;;4.22;1.67;;;;;;;;;;5051004;28;20244;-84
2023/10/22 11:47:50;;;;;;;3.77;1.67;;;;;;;;;;5051438;28;20221;-85
2023/10/22 11:50:18;;;;;;;3.33;1.35;;;;;;;;;;5051609;28;20275;-84
2023/10/22 11:52:50;;;;;;;2.70;1.30;;;;;;;;;;5051366;28;20213;-84
2023/10/22 11:55:17;;;;;;;2.05;1.33;;;;;;;;;;5050906;28;20241;-86
2023/10/22 11:57:45;;;;;;;5.25;1.52;;;;;;;;;;5051344;28;20206;-84
2023/10/22 12:00:14;;;;;;;8.57;2.17;;;;;;;;;;5050514;28;20267;-83
2023/10/22 12:02:42;;;;;;;4.03;1.45;;;;;;;;;;5050849;28;20641;-84
2023/10/22 12:05:10;;;;;;;4.47;1.90;;;;;;;;;;5044556;28;20237;-84
2023/10/22 12:07:38;;;;;;;7.22;1.90;;;;;;;;;;5045303;28;20202;-84
2023/10/22 12:10:06;;;;;;;7.15;1.75;;;;;;;;;;5050091;28;20229;-84
2023/10/22 12:12:33;;;;;;;4.93;1.70;;;;;;;;;;5057318;28;20259;-84
2023/10/22 12:15:00;;;;;;;9.63;1.80;;;;;;;;;;5051022;28;20263;-84
2023/10/22 12:17:27;;;;;;;5.87;1.87;;;;;;;;;;5053926;28;20233;-85
2023/10/22 12:19:54;;;;;;;4.68;1.38;;;;;;;;;;5052628;28;20623;-83
2023/10/22 12:22:21;;;;;;;3.83;1.60;;;;;;;;;;5053572;28;20886;-83
2023/10/22 12:24:52;;;;;;;4.07;2.28;;;;;;;;;;5055280;28;20703;-83
2023/10/22 12:27:19;;;;;;;5.50;1.55;;;;;;;;;;5050675;28;20712;-84
2023/10/22 12:29:47;;;;;;;4.22;1.65;;;;;;;;;;5048499;28;20225;-84
2023/10/22 12:32:14;;;;;;;4.35;1.88;;;;;;;;;;5049733;28;20899;-84
2023/10/22 12:34:41;;;;;;;5.20;1.58;;;;;;;;;;5050803;28;20684;-84
2023/10/22 12:37:08;;;;;;;6.68;2.30;;;;;;;;;;5049774;28;20225;-84
2023/10/22 12:39:35;;;;;;;5.83;1.30;;;;;;;;;;5050503;28;20225;-84
2023/10/22 12:42:05;;;;;;;4.25;2.08;;;;;;;;;;5049414;28;20611;-84
2023/10/22 12:44:32;;;;;;;5.85;1.45;;;;;;;;;;5050713;28;20198;-84
2023/10/22 12:46:59;;;;;;;3.85;2.00;;;;;;;;;;5049588;28;20226;-85
2023/10/22 12:49:26;;;;;;;4.53;1.55;;;;;;;;;;5053303;28;20229;-83
2023/10/22 12:51:53;;;;;;;4.93;1.58;;;;;;;;;;5049776;28;20731;-84
2023/10/22 12:54:20;;;;;;;9.75;2.03;;;;;;;;;;5050170;28;20217;-84
2023/10/22 12:56:48;;;;;;;6.70;1.70;;;;;;;;;;5049952;28;20236;-84
2023/10/22 12:59:16;;;;;;;4.65;1.67;;;;;;;;;;5048440;28;20236;-84
2023/10/22 13:01:43;;;;;;;5.35;1.35;;;;;;;;;;5050815;28;20241;-84
2023/10/22 13:04:10;;;;;;;3.28;1.30;;;;;;;;;;5056030;28;20206;-85
2023/10/22 13:06:37;;;;;;;3.72;1.75;;;;;;;;;;5050392;28;20236;-84
2023/10/22 13:09:05;;;;;;;4.00;1.67;;;;;;;;;;5050071;28;20222;-84
2023/10/22 13:11:32;;;;;;;5.07;2.13;;;;;;;;;;5065599;28;20241;-85
2023/10/22 13:13:59;;;;;;;7.57;2.53;;;;;;;;;;5050422;28;20229;-85
2023/10/22 13:16:28;;;;;;;3.22;1.60;;;;;;;;;;5052899;28;20700;-85
2023/10/22 13:18:55;;;;;;;2.83;1.10;;;;;;;;;;5048335;28;20229;-84
2023/10/22 13:21:22;;;;;;;4.93;1.75;;;;;;;;;;5049782;28;20234;-83
2023/10/22 13:23:49;;;;;;;5.05;1.45;;;;;;;;;;5050537;28;20208;-85
2023/10/22 13:26:16;;;;;;;3.17;1.52;;;;;;;;;;5051616;28;20253;-84
2023/10/22 13:28:43;;;;;;;2.33;1.15;;;;;;;;;;5062524;28;20222;-84
2023/10/22 13:31:10;;;;;;;8.77;2.17;;;;;;;;;;5060852;28;20214;-84
2023/10/22 13:33:39;;;;;;;5.80;1.58;;;;;;;;;;5057389;28;20225;-84
2023/10/22 13:36:06;;;;;;;2.58;1.50;;;;;;;;;;5051480;28;20249;-84
2023/10/22 13:38:33;;;;;;;5.05;1.55;;;;;;;;;;5066334;28;20233;-84
2023/10/22 13:41:02;;;;;;;3.30;1.50;;;;;;;;;;5052752;28;20598;-84
2023/10/22 13:43:29;;;;;;;3.92;1.48;;;;;;;;;;5052829;28;20618;-84
2023/10/22 13:45:56;;;;;;;8.73;1.63;;;;;;;;;;5053490;28;20715;-84
2023/10/22 13:48:23;;;;;;;5.53;1.63;;;;;;;;;;5053684;28;20209;-84
2023/10/22 13:50:52;;;;;;;2.78;1.20;;;;;;;;;;5052352;28;20233;-84
2023/10/22 13:53:19;;;;;;;6.22;1.50;;;;;;;;;;5052460;28;20199;-84
2023/10/22 13:55:46;;;;;;;2.25;0.98;;;;;;;;;;5052794;28;20222;-84
2023/10/22 13:58:13;;;;;;;8.32;1.67;;;;;;;;;;5052697;28;20285;-84
2023/10/22 14:00:40;;;;;;;5.75;1.30;;;;;;;;;;5052650;28;20237;-84
2023/10/22 14:03:07;;;;;;;6.70;2.08;;;;;;;;;;5052667;28;20206;-84
2023/10/22 14:05:34;;;;;;;2.28;1.02;;;;;;;;;;5052400;28;20233;-84
2023/10/22 14:08:03;;;;;;;3.47;1.10;;;;;;;;;;5056689;28;20202;-84
2023/10/22 14:10:31;;;;;;;4.22;1.55;;;;;;;;;;5055516;28;20955;-84
2023/10/22 14:12:59;;;;;;;3.65;1.20;;;;;;;;;;5056072;28;20209;-84
2023/10/22 14:15:26;;;;;;;6.25;1.75;;;;;;;;;;5052130;28;20267;-83
2023/10/22 14:17:53;;;;;;;2.42;1.23;;;;;;;;;;5052819;28;20687;-84
2023/10/22 14:20:20;;;;;;;2.65;1.15;;;;;;;;;;5051814;28;20226;-84
2023/10/22 14:22:47;;;;;;;2.15;1.35;;;;;;;;;;5052708;28;20225;-84
2023/10/22 14:25:16;;;;;;;5.28;1.30;;;;;;;;;;5052533;28;20206;-85
2023/10/22 14:27:44;;;;;;;5.30;1.35;;;;;;;;;;5052827;28;20229;-84
2023/10/22 14:30:11;;;;;;;3.22;0.98;;;;;;;;;;5052001;28;20218;-84
2023/10/22 14:32:38;;;;;;;8.07;1.63;;;;;;;;;;5052301;28;20206;-83
2023/10/22 14:35:06;;;;;;;1.55;0.90;;;;;;;;;;5053114;28;20198;-84
2023/10/22 14:37:34;;;;;;;3.30;1.30;;;;;;;;;;5051839;28;20209;-84
2023/10/22 14:40:03;;;;;;;2.63;1.50;;;;;;;;;;5052897;28;20305;-85
2023/10/22 14:42:31;;;;;;;3.15;1.13;;;;;;;;;;5046567;28;20316;-84
2023/10/22 14:44:58;;;;;;;2.33;1.20;;;;;;;;;;5053853;28;20210;-86
2023/10/22 14:47:25;;;;;;;3.85;1.65;;;;;;;;;;5052961;28;20597;-85